WetterOnline ( https://www.wetteronline.de )

Wetter aktuell Glashütte

Aktuelles Wetter: Dörnick (28m)

6-stündlich | Neueste Meldungen
Ortszeit Temperatur Wetter
Mi, 13.11. 1:00 4.1° C bewölkt
Di, 12.11. 19:00 6.4° C bewölkt
Di, 12.11. 13:00 7.0° C bewölkt
Di, 12.11. 7:00 4.4° C bedeckt
Di, 12.11. 1:00 3.0° C wolkenlos
Mo, 11.11. 19:00 2.8° C bedeckt
Mo, 11.11. 13:00 4.2° C wolkenlos
Mo, 11.11. 7:00 2.6° C wolkig
Ortszeit Temperatur Wetter
Mi, 13.11. 5:00 2.8° C leicht bewölkt
Mi, 13.11. 4:50 2.8° C leicht bewölkt
Mi, 13.11. 4:40 2.8° C leicht bewölkt
Mi, 13.11. 4:30 2.9° C wolkenlos
Mi, 13.11. 4:20 2.9° C wolkenlos
Mi, 13.11. 4:10 3.0° C wolkenlos
Mi, 13.11. 4:00 3.2° C fast wolkenlos
Mi, 13.11. 3:30 3.3° C wolkenlos
Mi, 13.11. 3:00 3.5° C wolkenlos
Mi, 13.11. 2:30 3.8° C bewölkt
Mi, 13.11. 2:00 3.7° C bedeckt
Ortszeit Relative Feuchte Sichtweite
Mi, 13.11. 1:00 89% 45 km
Di, 12.11. 19:00 77% 50 km
Di, 12.11. 13:00 74% 50 km
Di, 12.11. 7:00 86% 19 km
Di, 12.11. 1:00 87% 15 km
Mo, 11.11. 19:00 92% 9 km
Mo, 11.11. 13:00 80% 30 km
Mo, 11.11. 7:00 92% 8 km
Ortszeit Relative Feuchte Sichtweite
Mi, 13.11. 5:00 92% 30 km
Mi, 13.11. 4:50 92% -
Mi, 13.11. 4:40 92% -
Mi, 13.11. 4:30 92% 30 km
Mi, 13.11. 4:20 92% -
Mi, 13.11. 4:10 92% -
Mi, 13.11. 4:00 91% 30 km
Mi, 13.11. 3:30 91% 29 km
Mi, 13.11. 3:00 90% 30 km
Mi, 13.11. 2:30 89% 35 km
Mi, 13.11. 2:00 90% 40 km
Ortszeit Niederschlagsmenge Niederschlagsart
Mi, 13.11. 1:00 0.1 l/m2 in 6 Std. Regen
Di, 12.11. 19:00 0.1 l/m2 in 12 Std. Regen
Di, 12.11. 13:00 0.1 l/m2 in 6 Std. Regen
Di, 12.11. 7:00 0.0 l/m2 in 12 Std. -
Di, 12.11. 1:00 0.0 l/m2 in 6 Std. -
Mo, 11.11. 19:00 0.0 l/m2 in 12 Std. -
Mo, 11.11. 13:00 0.0 l/m2 in 6 Std. -
Mo, 11.11. 7:00 0.0 l/m2 in 12 Std. -
Ortszeit Niederschlagsmenge Niederschlagsart
Mi, 13.11. 5:00 0.0 l/m2 in 1 Std. -
Mi, 13.11. 4:50 keine Meldung -
Mi, 13.11. 4:40 keine Meldung -
Mi, 13.11. 4:30 0.0 l/m2 in 1 Std. -
Mi, 13.11. 4:20 keine Meldung -
Mi, 13.11. 4:10 keine Meldung -
Mi, 13.11. 4:00 0.0 l/m2 in 1 Std. -
Mi, 13.11. 3:30 0.0 l/m2 in 1 Std. -
Mi, 13.11. 3:00 0.0 l/m2 in 1 Std. -
Mi, 13.11. 2:30 0.0 l/m2 in 1 Std. -
Mi, 13.11. 2:00 0.0 l/m2 in 1 Std. -
Ortszeit Stärke Spitze Richtung
km/h Bft. km/h Grad Sektor
Mi, 13.11. 1:00 13 3 31 170° S
Di, 12.11. 19:00 14 3 40 150° SO
Di, 12.11. 13:00 24 4 44 200° S
Di, 12.11. 7:00 20 4 33 170° S
Di, 12.11. 1:00 22 4 40 160° S
Mo, 11.11. 19:00 22 4 40 160° S
Mo, 11.11. 13:00 18 3 29 160° S
Mo, 11.11. 7:00 14 3 25 170° S
Ortszeit Stärke Spitze Richtung
km/h Bft. km/h Grad Sektor
Mi, 13.11. 5:00 13 3 22 160° S
Mi, 13.11. 4:50 13 3 - 160° S
Mi, 13.11. 4:40 13 3 - 160° S
Mi, 13.11. 4:30 13 3 22 150° SO
Mi, 13.11. 4:20 13 3 - 150° SO
Mi, 13.11. 4:10 13 3 - 150° SO
Mi, 13.11. 4:00 11 2 20 160° S
Mi, 13.11. 3:30 11 2 19 150° SO
Mi, 13.11. 3:00 13 3 26 150° SO
Mi, 13.11. 2:30 11 2 22 150° SO
Mi, 13.11. 2:00 9 2 19 160° S
Ortszeit Untergrenze Bedeckung Gattung
total tief tief mittel hoch
Mi, 13.11. 1:00 6900 m 7/8 7/8 - - -
Di, 12.11. 19:00 1350 m 7/8 7/8 - - -
Di, 12.11. 13:00 810 m 7/8 8/8 - - -
Di, 12.11. 7:00 630 m 8/8 8/8 - - -
Di, 12.11. 1:00 5700 m 0/8 0/8 - - -
Mo, 11.11. 19:00 210 m 8/8 8/8 - - -
Mo, 11.11. 13:00 - 0/8 0/8 - - -
Mo, 11.11. 7:00 5700 m 6/8 6/8 - - -
Ortszeit Bedeckungsgrad in Achtel und Wolkenuntergrenze
Mi, 13.11. 5:00 4(6300m)
Mi, 13.11. 4:50 4(6300m)
Mi, 13.11. 4:40 4(6300m)
Mi, 13.11. 4:30 2(6300m)
Mi, 13.11. 4:20 keine Wolken
Mi, 13.11. 4:10 keine Wolken
Mi, 13.11. 4:00 2(9000m)
Mi, 13.11. 3:30 1(9000m)
Mi, 13.11. 3:00 keine Wolken
Mi, 13.11. 2:30 7(6300m) 7(7200m)
Mi, 13.11. 2:00 8(6300m)
Ortszeit Luftdruck NN (hPa) Tendenz (hPa in 3 Std.)
Mi, 13.11. 1:00 1001 - 0,6
Di, 12.11. 19:00 1001 - 0,4
Di, 12.11. 13:00 1001 + 0,1
Di, 12.11. 7:00 1001 - 0,3
Di, 12.11. 1:00 1001 - 1,4
Mo, 11.11. 19:00 1004 - 1,2
Mo, 11.11. 13:00 1008 - 1,7
Mo, 11.11. 7:00 1010 - 1,7
Ortszeit Luftdruck NN (hPa) Tendenz (hPa in 3 Std.)
Mi, 13.11. 5:00 1000 - 0,6
Mi, 13.11. 4:50 1000 keine Meldung
Mi, 13.11. 4:40 1000 keine Meldung
Mi, 13.11. 4:30 1000 - 0,5
Mi, 13.11. 4:20 1000 keine Meldung
Mi, 13.11. 4:10 1000 keine Meldung
Mi, 13.11. 4:00 1000 - 0,7
Mi, 13.11. 3:30 1000 - 0,9
Mi, 13.11. 3:00 1001 - 0,9
Mi, 13.11. 2:30 1001 - 0,9
Mi, 13.11. 2:00 1001 - 0,9
Ortszeit Schneehöhe (cm)
Mi, 13.11. 1:00 0
Di, 12.11. 19:00 0
Di, 12.11. 13:00 0
Di, 12.11. 7:00 0
Di, 12.11. 1:00 0
Mo, 11.11. 19:00 0
Mo, 11.11. 13:00 0
Mo, 11.11. 7:00 0
Ortszeit Schneehöhe (cm)
Mi, 13.11. 5:00 0
Mi, 13.11. 4:50 0
Mi, 13.11. 4:40 0
Mi, 13.11. 4:30 0
Mi, 13.11. 4:20 0
Mi, 13.11. 4:10 0
Mi, 13.11. 4:00 0
Mi, 13.11. 3:30 0
Mi, 13.11. 3:00 0
Mi, 13.11. 2:30 0
Mi, 13.11. 2:00 0
Link zu dieser Seite / Seite empfehlen

Das Wetter in ...